Time;durP1;ratioP1;P1;durP2;ratioP2;P2;SDS_P1;SDS_P2;PMS_P1;PMS_P2;Temp;Humidity;BMP_temperature;BMP_pressure;BME280_temperature;BME280_humidity;BME280_pressure;Samples;Min_cycle;Max_cycle;Signal;HPM_P1;HPM_P2
2023/11/10 00:00:24;;;;;;;9.00;7.53;;;;;;;7.13;100.00;100842.84;5031503;28;20086;-64
2023/11/10 00:02:51;;;;;;;8.03;6.87;;;;;;;7.17;100.00;100842.56;5030006;28;20136;-63
2023/11/10 00:05:16;;;;;;;9.03;7.07;;;;;;;7.07;100.00;100827.50;5031328;28;20088;-64
2023/11/10 00:07:42;;;;;;;8.57;7.07;;;;;;;7.16;100.00;100839.06;5031485;28;20037;-64
2023/11/10 00:10:08;;;;;;;10.00;6.23;;;;;;;7.14;100.00;100841.88;5031623;28;20087;-64
2023/11/10 00:12:34;;;;;;;10.83;6.83;;;;;;;7.08;100.00;100829.19;5030463;28;20084;-65
2023/11/10 00:15:00;;;;;;;8.43;7.53;;;;;;;7.21;100.00;100849.25;5033822;28;20162;-66
2023/11/10 00:17:26;;;;;;;22.73;7.60;;;;;;;7.00;100.00;100815.81;5031250;28;20494;-66
2023/11/10 00:19:51;;;;;;;11.50;8.20;;;;;;;7.09;100.00;100838.81;5032555;28;20049;-64
2023/11/10 00:22:17;;;;;;;7.70;6.90;;;;;;;6.97;100.00;100826.69;5033755;28;20486;-64
2023/11/10 00:24:45;;;;;;;8.60;7.50;;;;;;;7.10;100.00;100842.28;5033171;28;20427;-65
2023/11/10 00:27:13;;;;;;;11.93;8.07;;;;;;;7.01;100.00;100822.78;5033108;28;20073;-65
2023/11/10 00:29:41;;;;;;;7.68;6.88;;;;;;;7.11;100.00;100834.22;5030800;28;20137;-64
2023/11/10 00:32:11;;;;;;;10.10;7.40;;;;;;;7.19;100.00;100833.50;5031978;28;20103;-64
2023/11/10 00:34:41;;;;;;;12.10;7.93;;;;;;;7.12;100.00;100829.75;5030458;28;20132;-66
2023/11/10 00:37:07;;;;;;;11.30;7.20;;;;;;;7.21;100.00;100828.06;5030780;28;20480;-64
2023/11/10 00:39:33;;;;;;;9.67;8.40;;;;;;;7.19;100.00;100824.72;5031827;28;20091;-64
2023/11/10 00:41:59;;;;;;;11.03;7.83;;;;;;;7.18;100.00;100817.75;5031550;28;20033;-64
2023/11/10 00:44:27;;;;;;;8.23;7.30;;;;;;;7.21;100.00;100828.06;5030068;28;20084;-67
2023/11/10 00:46:53;;;;;;;11.20;7.80;;;;;;;7.20;100.00;100826.41;5031389;28;20627;-63
2023/11/10 00:49:18;;;;;;;9.90;7.53;;;;;;;7.13;100.00;100805.75;5030857;28;20445;-63
2023/11/10 00:51:44;;;;;;;9.03;7.27;;;;;;;7.20;100.00;100824.56;5035052;28;20048;-64
2023/11/10 00:54:10;;;;;;;9.70;6.87;;;;;;;7.21;100.00;100817.47;5036104;28;20038;-64
2023/11/10 00:56:36;;;;;;;9.43;7.73;;;;;;;7.19;100.00;100814.13;5035682;28;20041;-64
2023/11/10 00:59:03;;;;;;;8.40;6.63;;;;;;;7.18;100.00;100817.75;5034710;28;20059;-62
2023/11/10 01:01:29;;;;;;;7.67;6.70;;;;;;;7.06;100.00;100804.66;5034324;28;20128;-62
2023/11/10 01:03:54;;;;;;;8.43;6.73;;;;;;;6.22;100.00;100668.50;5034247;28;20572;-67
2023/11/10 01:06:22;;;;;;;10.63;6.87;;;;;;;7.15;100.00;100818.88;5033377;28;20049;-65
2023/11/10 01:08:48;;;;;;;7.87;6.50;;;;;;;6.90;100.00;100772.59;5035054;28;20033;-65
2023/11/10 01:11:13;;;;;;;9.43;6.80;;;;;;;6.93;100.00;100782.88;5034420;28;20049;-65
2023/11/10 01:13:39;;;;;;;9.23;6.67;;;;;;;6.78;100.00;100763.13;5033061;28;20061;-68
2023/11/10 01:16:05;;;;;;;7.93;7.17;;;;;;;6.81;100.00;100768.97;5033732;28;20065;-64
2023/11/10 01:18:33;;;;;;;7.60;6.60;;;;;;;6.99;100.00;100802.72;5034268;28;20063;-62
2023/11/10 01:21:00;;;;;;;15.27;7.13;;;;;;;7.08;100.00;100818.59;5034726;28;20088;-66
2023/11/10 01:23:26;;;;;;;8.33;6.77;;;;;;;7.10;100.00;100827.22;5034127;28;20065;-64
2023/11/10 01:25:52;;;;;;;9.17;7.10;;;;;;;6.98;100.00;100799.22;5034331;28;20041;-64
2023/11/10 01:28:21;;;;;;;8.60;6.83;;;;;;;6.98;100.00;100812.47;5032483;28;20037;-65
2023/11/10 01:30:47;;;;;;;10.03;7.90;;;;;;;7.02;100.00;100819.16;5033683;28;20497;-64
2023/11/10 01:33:13;;;;;;;8.17;6.83;;;;;;;6.95;100.00;100810.09;5034021;28;20039;-64
2023/11/10 01:35:39;;;;;;;8.17;7.30;;;;;;;6.89;100.00;100793.91;5034044;28;20469;-63
2023/11/10 01:38:05;;;;;;;9.00;6.70;;;;;;;7.03;100.00;100820.00;5034198;28;20120;-65
2023/11/10 01:40:38;;;;;;;8.90;7.50;;;;;;;7.03;100.00;100814.69;5034626;28;20040;-64
2023/11/10 01:43:08;;;;;;;8.63;7.00;;;;;;;7.03;100.00;100810.22;5033086;28;20064;-63
2023/11/10 01:45:34;;;;;;;8.67;7.43;;;;;;;6.95;100.00;100807.44;5034091;28;20068;-65
2023/11/10 01:47:59;;;;;;;11.30;8.07;;;;;;;6.95;100.00;100809.25;5034772;28;20069;-63
2023/11/10 01:50:27;;;;;;;9.93;7.20;;;;;;;6.87;100.00;100799.34;5033949;28;20084;-67
2023/11/10 01:52:52;;;;;;;9.07;7.73;;;;;;;6.91;100.00;100815.78;5033613;28;20578;-66
2023/11/10 01:55:18;;;;;;;8.80;7.90;;;;;;;6.78;100.00;100786.94;5033523;28;20048;-63
2023/11/10 01:57:46;;;;;;;9.10;7.40;;;;;;;6.86;100.00;100810.91;5033205;28;20033;-66
2023/11/10 02:00:13;;;;;;;9.02;7.47;;;;;;;6.71;100.00;100793.75;5032268;28;20058;-63
2023/11/10 02:02:38;;;;;;;10.03;7.90;;;;;;;6.74;100.00;100798.78;5032856;28;20052;-65
2023/11/10 02:05:07;;;;;;;8.90;7.37;;;;;;;6.64;100.00;100782.84;5033686;28;20037;-63
2023/11/10 02:07:33;;;;;;;9.60;7.23;;;;;;;6.64;100.00;100782.03;5033752;28;20503;-62
2023/11/10 02:09:59;;;;;;;10.27;7.67;;;;;;;6.70;100.00;100777.03;5034564;28;20037;-63
2023/11/10 02:12:24;;;;;;;8.70;7.37;;;;;;;6.79;100.00;100792.09;5034259;28;20038;-62
2023/11/10 02:14:50;;;;;;;10.27;7.67;;;;;;;6.76;100.00;100778.28;5032845;28;20041;-64
2023/11/10 02:17:16;;;;;;;8.67;7.23;;;;;;;6.88;100.00;100794.88;5031667;28;20447;-63
2023/11/10 02:19:41;;;;;;;8.60;7.03;;;;;;;6.71;100.00;100772.59;5032316;28;20044;-64
2023/11/10 02:22:20;;;;;;;8.40;7.13;;;;;;;6.83;100.00;100798.78;5033233;28;20034;-63
2023/11/10 02:24:50;;;;;;;9.57;8.57;;;;;;;6.77;100.00;100793.19;5033084;28;20607;-64
2023/11/10 02:27:16;;;;;;;18.20;9.77;;;;;;;6.75;100.00;100796.00;5033287;28;20033;-66
2023/11/10 02:29:43;;;;;;;8.83;7.93;;;;;;;6.77;100.00;100787.91;5032880;28;20132;-64
2023/11/10 02:32:10;;;;;;;9.13;8.20;;;;;;;6.59;100.00;100763.06;5032839;28;20060;-66
2023/11/10 02:34:35;;;;;;;8.30;7.43;;;;;;;6.63;100.00;100775.06;5032873;28;20046;-64
2023/11/10 02:37:02;;;;;;;11.60;7.53;;;;;;;6.71;100.00;100799.06;5032823;28;20040;-65
2023/11/10 02:39:28;;;;;;;9.20;8.27;;;;;;;6.75;100.00;100792.50;5031650;28;20192;-63
2023/11/10 02:41:54;;;;;;;9.43;8.13;;;;;;;6.74;100.00;100793.47;5033834;28;20059;-65
2023/11/10 02:44:21;;;;;;;11.20;8.63;;;;;;;6.74;100.00;100788.19;5032888;28;20469;-67
2023/11/10 02:46:47;;;;;;;13.60;8.17;;;;;;;6.72;100.00;100788.31;5031354;28;20436;-63
2023/11/10 02:49:14;;;;;;;11.00;9.23;;;;;;;6.64;100.00;100789.97;5032736;28;20037;-62
2023/11/10 02:51:40;;;;;;;9.33;8.13;;;;;;;6.53;100.00;100797.06;5032345;28;20048;-68
2023/11/10 02:54:05;;;;;;;10.23;8.20;;;;;;;6.47;100.00;100787.03;5031000;28;20029;-64
2023/11/10 02:56:31;;;;;;;8.77;7.37;;;;;;;6.52;100.00;100790.09;5032661;28;20038;-63
2023/11/10 02:58:56;;;;;;;7.47;6.27;;;;;;;6.61;100.00;100798.19;5032732;28;20037;-65
2023/11/10 03:01:26;;;;;;;7.73;6.93;;;;;;;6.32;100.00;100745.19;5032240;28;20544;-63
2023/11/10 03:03:51;;;;;;;8.40;6.80;;;;;;;6.57;100.00;100810.00;5031908;28;20045;-63
2023/11/10 03:06:17;;;;;;;8.37;7.20;;;;;;;6.46;100.00;100788.00;5031792;28;20413;-65
2023/11/10 03:08:43;;;;;;;8.23;7.30;;;;;;;6.47;100.00;100789.66;5032161;28;20026;-64
2023/11/10 03:11:09;;;;;;;10.03;6.97;;;;;;;6.57;100.00;100807.38;5032366;28;20045;-65
2023/11/10 03:13:35;;;;;;;10.10;8.47;;;;;;;6.58;100.00;100806.38;5031581;28;20099;-65
2023/11/10 03:16:02;;;;;;;8.70;6.57;;;;;;;5.76;100.00;100676.94;5031842;28;20041;-64
2023/11/10 03:18:28;;;;;;;7.17;6.27;;;;;;;6.49;100.00;100787.72;5031810;28;20489;-64
2023/11/10 03:20:54;;;;;;;8.43;7.10;;;;;;;6.58;100.00;100794.00;5031467;28;20128;-65
2023/11/10 03:23:19;;;;;;;7.40;6.67;;;;;;;6.32;100.00;100750.50;5030151;28;20132;-64
2023/11/10 03:25:48;;;;;;;10.33;7.43;;;;;;;6.53;100.00;100788.28;5031829;28;20143;-65
2023/11/10 03:28:13;;;;;;;8.35;7.40;;;;;;;6.51;100.00;100798.16;5031953;28;20041;-63
2023/11/10 03:30:39;;;;;;;8.60;7.70;;;;;;;6.08;100.00;100735.00;5031848;28;20507;-64
2023/11/10 03:33:04;;;;;;;8.67;7.30;;;;;;;6.54;100.00;100803.19;5031587;28;20440;-63
2023/11/10 03:35:30;;;;;;;7.60;6.63;;;;;;;6.45;100.00;100783.69;5031725;28;20037;-65
2023/11/10 03:37:56;;;;;;;10.87;7.00;;;;;;;6.46;100.00;100780.06;5031669;28;20061;-64
2023/11/10 03:40:21;;;;;;;9.37;6.90;;;;;;;6.37;100.00;100759.72;5030668;28;20095;-65
2023/11/10 03:42:47;;;;;;;8.53;6.60;;;;;;;6.63;100.00;100804.16;5032007;28;20552;-65
2023/11/10 03:45:12;;;;;;;6.80;6.10;;;;;;;6.58;100.00;100794.00;5031847;28;20037;-65
2023/11/10 03:47:39;;;;;;;8.07;7.10;;;;;;;6.56;100.00;100787.16;5031627;28;20140;-65
2023/11/10 03:50:07;;;;;;;9.50;6.30;;;;;;;6.53;100.00;100775.88;5031571;28;20037;-67
2023/11/10 03:52:33;;;;;;;8.15;7.32;;;;;;;6.62;100.00;100789.25;5031933;28;20083;-64
2023/11/10 03:54:59;;;;;;;9.07;6.67;;;;;;;6.48;100.00;100751.66;5031966;28;20055;-66
2023/11/10 03:57:25;;;;;;;8.83;6.43;;;;;;;6.68;100.00;100789.56;5031689;28;20033;-65
2023/11/10 03:59:50;;;;;;;9.10;7.30;;;;;;;6.72;100.00;100783.03;5031156;28;20037;-65
2023/11/10 04:02:16;;;;;;;11.93;6.60;;;;;;;6.69;100.00;100770.06;5031743;28;20056;-64
2023/11/10 04:04:42;;;;;;;8.60;7.00;;;;;;;6.64;100.00;100771.44;5031192;28;20079;-64
2023/11/10 04:07:08;;;;;;;9.00;7.13;;;;;;;6.65;100.00;100776.63;5031273;28;20476;-63
2023/11/10 04:09:34;;;;;;;9.07;6.93;;;;;;;6.60;100.00;100765.59;5031368;28;20171;-63
2023/11/10 04:12:01;;;;;;;12.53;7.70;;;;;;;6.49;100.00;100745.38;5031386;28;20075;-65
2023/11/10 04:14:27;;;;;;;10.57;8.13;;;;;;;6.72;100.00;100768.97;5031367;28;20064;-65
2023/11/10 04:16:52;;;;;;;9.63;7.27;;;;;;;6.68;100.00;100764.94;5031289;28;20037;-65
2023/11/10 04:19:18;;;;;;;8.07;7.27;;;;;;;6.75;100.00;100769.53;5031244;28;20451;-65
2023/11/10 04:21:44;;;;;;;10.67;8.20;;;;;;;6.71;100.00;100757.53;5031539;28;20063;-66
2023/11/10 04:24:11;;;;;;;13.53;8.13;;;;;;;6.70;100.00;100755.03;5031203;28;20054;-66
2023/11/10 04:26:41;;;;;;;11.47;7.27;;;;;;;6.68;100.00;100760.47;5034568;28;20064;-64
2023/11/10 04:29:08;;;;;;;11.43;8.63;;;;;;;6.76;100.00;100771.19;5035240;28;20041;-64
2023/11/10 04:31:35;;;;;;;17.00;9.25;;;;;;;6.68;100.00;100757.81;5033557;28;20065;-66
2023/11/10 04:34:04;;;;;;;10.03;7.50;;;;;;;6.69;100.00;100763.94;5034708;28;20091;-64
2023/11/10 04:36:29;;;;;;;;;;;;;;;6.70;100.00;100763.81;5035526;28;20037;-63
2023/11/10 04:38:55;;;;;;;11.30;8.57;;;;;;;6.57;100.00;100749.16;5035081;28;20399;-66
2023/11/10 04:41:21;;;;;;;11.00;7.60;;;;;;;6.65;100.00;100760.75;5035169;28;20445;-64
2023/11/10 04:43:47;;;;;;;12.73;7.77;;;;;;;6.62;100.00;100758.34;5034974;28;20396;-66
2023/11/10 04:46:13;;;;;;;10.57;7.90;;;;;;;6.41;100.00;100729.38;5033743;28;20083;-64
2023/11/10 04:48:39;;;;;;;12.67;7.77;;;;;;;6.50;100.00;100760.28;5034679;28;20044;-64
2023/11/10 04:51:05;;;;;;;10.43;6.90;;;;;;;6.48;100.00;100761.41;5034939;28;20037;-65
2023/11/10 04:53:31;;;;;;;8.77;7.57;;;;;;;6.46;100.00;100763.34;5035073;28;20040;-64
2023/11/10 04:55:57;;;;;;;11.67;8.10;;;;;;;6.33;100.00;100731.00;5033605;28;20030;-67
2023/11/10 04:58:22;;;;;;;9.47;6.83;;;;;;;6.38;100.00;100729.66;5034504;28;20084;-64
2023/11/10 05:00:49;;;;;;;11.83;8.63;;;;;;;6.52;100.00;100755.69;5033417;28;20453;-66
2023/11/10 05:03:18;;;;;;;16.10;8.60;;;;;;;6.66;100.00;100767.72;5016725;28;20037;-65
2023/11/10 05:05:45;;;;;;;8.05;6.38;;;;;;;6.70;100.00;100770.91;5034347;28;20491;-67
2023/11/10 05:08:11;;;;;;;9.63;7.20;;;;;;;6.63;100.00;100753.88;5034767;28;20041;-66
2023/11/10 05:10:38;;;;;;;10.67;8.67;;;;;;;6.67;100.00;100765.91;5033348;28;20056;-65
2023/11/10 05:13:03;;;;;;;13.33;8.97;;;;;;;6.56;100.00;100747.47;5017578;28;20045;-66
2023/11/10 05:15:29;;;;;;;11.23;7.77;;;;;;;6.62;100.00;100773.38;5034582;28;20041;-66
2023/11/10 05:17:56;;;;;;;9.93;8.27;;;;;;;6.61;100.00;100761.13;5033709;28;20045;-65
2023/11/10 05:20:22;;;;;;;12.10;8.97;;;;;;;6.62;100.00;100768.09;5034140;28;20033;-66
2023/11/10 05:22:48;;;;;;;8.60;7.13;;;;;;;6.60;100.00;100754.16;5033724;28;20499;-66
2023/11/10 05:25:16;;;;;;;12.10;7.60;;;;;;;6.65;100.00;100762.53;5033849;28;20077;-68
2023/11/10 05:27:41;;;;;;;9.32;7.40;;;;;;;6.41;100.00;100723.25;5034096;28;20048;-65
2023/11/10 05:30:09;;;;;;;11.50;9.07;;;;;;;6.44;100.00;100741.47;5032534;28;20041;-68
2023/11/10 05:32:34;;;;;;;9.47;7.23;;;;;;;6.31;100.00;100711.78;5035286;28;20053;-66
2023/11/10 05:35:33;;;;;;;8.63;7.07;;;;;;;6.50;100.00;100755.00;5034320;28;20041;-69
2023/11/10 05:37:58;;;;;;;11.70;6.78;;;;;;;6.54;100.00;100750.25;5032917;28;20098;-68
2023/11/10 05:40:26;;;;;;;11.23;8.10;;;;;;;6.55;100.00;100757.22;5034124;28;20396;-65
2023/11/10 05:42:51;;;;;;;9.83;6.50;;;;;;;6.53;100.00;100760.00;5033803;28;20042;-68
2023/11/10 05:45:17;;;;;;;9.17;6.80;;;;;;;6.51;100.00;100750.53;5033707;28;20033;-66
2023/11/10 05:47:43;;;;;;;8.70;6.23;;;;;;;6.57;100.00;100762.38;5032592;28;20033;-64
2023/11/10 05:50:09;;;;;;;8.33;6.73;;;;;;;6.55;100.00;100756.38;5034088;28;20184;-66
2023/11/10 05:52:35;;;;;;;10.03;7.03;;;;;;;6.59;100.00;100763.06;5033416;28;20038;-66
2023/11/10 05:55:01;;;;;;;10.63;6.73;;;;;;;6.53;100.00;100760.00;5033469;28;20044;-67
2023/11/10 05:57:26;;;;;;;9.63;6.90;;;;;;;6.59;100.00;100778.94;5033891;28;20076;-65
2023/11/10 05:59:52;;;;;;;10.47;6.60;;;;;;;6.52;100.00;100774.22;5033598;28;20033;-68
2023/11/10 06:02:18;;;;;;;10.53;6.60;;;;;;;6.47;100.00;100781.72;5033458;28;20481;-67
2023/11/10 06:04:44;;;;;;;11.97;7.73;;;;;;;6.46;100.00;100766.81;5032162;28;20034;-66
2023/11/10 06:07:11;;;;;;;9.73;6.70;;;;;;;6.35;100.00;100745.75;5033613;28;20041;-68
2023/11/10 06:09:37;;;;;;;14.20;6.97;;;;;;;6.47;100.00;100749.16;5033014;28;20033;-64
2023/11/10 06:12:07;;;;;;;12.97;7.10;;;;;;;6.60;100.00;100764.75;5033542;28;20900;-68
2023/11/10 06:14:33;;;;;;;10.37;7.43;;;;;;;6.63;100.00;100759.19;5033353;28;20034;-66
2023/11/10 06:16:59;;;;;;;9.97;7.40;;;;;;;6.63;100.00;100753.88;5031839;28;20029;-66
2023/11/10 06:19:25;;;;;;;8.97;6.70;;;;;;;6.60;100.00;100746.22;5033241;28;20029;-68
2023/11/10 06:21:52;;;;;;;11.93;7.53;;;;;;;6.59;100.00;100755.13;5033105;28;20091;-67
2023/11/10 06:24:19;;;;;;;10.97;7.07;;;;;;;6.61;100.00;100755.84;5032822;28;20068;-68
2023/11/10 06:26:46;;;;;;;14.70;7.40;;;;;;;6.59;100.00;100755.13;5032800;28;20087;-67
2023/11/10 06:29:12;;;;;;;13.97;8.20;;;;;;;6.61;100.00;100745.25;5033041;28;20052;-67
2023/11/10 06:31:38;;;;;;;10.73;7.40;;;;;;;6.62;100.00;100753.06;5031362;28;20041;-66
2023/11/10 06:34:04;;;;;;;13.23;8.87;;;;;;;6.62;100.00;100742.47;5031740;28;20071;-65
2023/11/10 06:36:31;;;;;;;10.87;8.33;;;;;;;6.73;100.00;100755.59;5033436;28;20037;-68
2023/11/10 06:38:57;;;;;;;15.17;9.63;;;;;;;6.73;100.00;100749.47;5032586;28;20029;-65
2023/11/10 06:41:24;;;;;;;17.53;10.27;;;;;;;6.53;100.00;100722.13;5032399;28;20120;-66
2023/11/10 06:43:50;;;;;;;28.80;15.87;;;;;;;6.55;100.00;100741.34;5032052;28;20544;-66
2023/11/10 06:46:20;;;;;;;18.53;9.97;;;;;;;6.66;100.00;100749.19;5032744;28;20071;-65
2023/11/10 06:48:47;;;;;;;22.23;12.60;;;;;;;6.63;100.00;100740.66;5031818;28;20038;-66
2023/11/10 06:51:13;;;;;;;25.87;12.57;;;;;;;6.61;100.00;100742.59;5032414;28;20037;-66
2023/11/10 06:53:38;;;;;;;20.53;12.50;;;;;;;6.66;100.00;100758.94;5032386;28;20095;-66
2023/11/10 06:56:04;;;;;;;13.40;9.30;;;;;;;6.71;100.00;100764.66;5032647;28;20040;-67
2023/11/10 06:58:30;;;;;;;12.10;8.27;;;;;;;6.64;100.00;100742.31;5031834;28;20033;-66
2023/11/10 07:00:58;;;;;;;13.57;9.30;;;;;;;6.75;100.00;100764.22;5033021;28;20037;-65
2023/11/10 07:03:24;;;;;;;14.68;9.38;;;;;;;6.46;100.00;100699.84;5036780;28;20068;-64
2023/11/10 07:05:50;;;;;;;13.77;9.60;;;;;;;6.76;100.00;100759.78;5042389;28;20037;-64
2023/11/10 07:08:17;;;;;;;17.60;11.80;;;;;;;6.47;100.00;100718.22;5042844;28;20043;-67
2023/11/10 07:10:44;;;;;;;18.07;12.93;;;;;;;6.73;100.00;100752.94;5035031;28;20044;-68
2023/11/10 07:13:11;;;;;;;20.83;11.10;;;;;;;6.73;100.00;100752.09;5032596;28;20443;-69
2023/11/10 07:15:37;;;;;;;11.07;8.17;;;;;;;6.76;100.00;100757.97;5032433;28;20041;-68
2023/11/10 07:18:03;;;;;;;15.43;9.53;;;;;;;6.72;100.00;100748.63;5032147;28;20079;-68
2023/11/10 07:20:30;;;;;;;15.17;10.27;;;;;;;6.70;100.00;100739.16;5032235;28;20037;-65
2023/11/10 07:23:00;;;;;;;18.23;9.67;;;;;;;6.77;100.00;100741.09;5031817;28;20048;-66
2023/11/10 07:25:28;;;;;;;24.07;12.60;;;;;;;6.92;100.00;100765.34;5031832;28;20065;-68
2023/11/10 07:27:55;;;;;;;12.95;8.43;;;;;;;6.82;100.00;100751.28;5032282;28;20091;-70
2023/11/10 07:30:22;;;;;;;11.70;8.97;;;;;;;6.84;100.00;100757.25;5031828;28;20037;-71
2023/11/10 07:32:49;;;;;;;11.33;8.03;;;;;;;6.81;100.00;100746.94;5030472;28;20029;-67
2023/11/10 07:35:16;;;;;;;11.53;8.43;;;;;;;6.84;100.00;100758.09;5039639;28;20044;-65
2023/11/10 07:37:44;;;;;;;17.03;10.27;;;;;;;6.83;100.00;100740.53;5031671;28;20048;-69
2023/11/10 07:40:20;;;;;;;14.20;10.57;;;;;;;6.94;100.00;100747.53;5033410;28;20041;-68
2023/11/10 07:42:47;;;;;;;17.03;9.43;;;;;;;6.97;100.00;100752.53;5031758;28;20167;-67
2023/11/10 07:45:14;;;;;;;17.37;9.97;;;;;;;6.91;100.00;100741.66;5031452;28;20093;-66
2023/11/10 07:47:46;;;;;;;26.90;13.03;;;;;;;6.89;100.00;100733.00;5031548;28;20050;-66
2023/11/10 07:50:14;;;;;;;13.03;9.60;;;;;;;7.00;100.00;100749.63;5031821;28;20041;-66
2023/11/10 07:52:41;;;;;;;10.73;8.43;;;;;;;7.03;100.00;100751.16;5028162;28;20413;-66
2023/11/10 07:55:07;;;;;;;22.57;12.13;;;;;;;7.04;100.00;100743.06;5021620;28;20409;-67
2023/11/10 07:57:33;;;;;;;18.97;9.90;;;;;;;7.06;100.00;100745.56;5023443;28;20034;-65
2023/11/10 08:00:02;;;;;;;16.23;10.27;;;;;;;7.07;100.00;100739.28;5020767;28;20044;-67
2023/11/10 08:02:30;;;;;;;11.43;7.70;;;;;;;7.06;100.00;100734.97;5019964;28;20052;-67
2023/11/10 08:04:56;;;;;;;16.20;8.50;;;;;;;7.10;100.00;100736.34;5022536;28;20025;-67
2023/11/10 08:07:23;;;;;;;13.27;9.53;;;;;;;7.10;100.00;100731.91;5020263;28;20091;-67
2023/11/10 08:09:49;;;;;;;18.47;9.63;;;;;;;7.08;100.00;100715.31;5004267;28;20029;-68
2023/11/10 08:12:15;;;;;;;12.40;8.63;;;;;;;7.23;100.00;100730.75;5019298;28;20568;-68
2023/11/10 08:14:41;;;;;;;14.53;7.90;;;;;;;7.30;100.00;100721.28;5020599;28;20128;-73
2023/11/10 08:17:07;;;;;;;14.57;9.33;;;;;;;7.37;100.00;100723.22;5019671;28;20025;-68
2023/11/10 08:19:33;;;;;;;16.37;9.03;;;;;;;7.26;100.00;100693.41;5020022;28;20040;-71
2023/11/10 08:22:03;;;;;;;16.70;8.40;;;;;;;7.34;100.00;100712.06;5020821;28;20033;-67
2023/11/10 08:24:30;;;;;;;14.70;8.90;;;;;;;7.26;100.00;100698.72;5023174;28;20057;-66
2023/11/10 08:26:57;;;;;;;14.20;9.80;;;;;;;7.32;100.00;100714.88;5023710;28;20110;-69
2023/11/10 08:29:23;;;;;;;14.20;9.27;;;;;;;7.38;100.00;100714.28;5023448;28;20388;-65
2023/11/10 08:31:50;;;;;;;10.80;8.17;;;;;;;7.18;100.00;100687.97;5027068;28;20068;-66
2023/11/10 08:34:17;;;;;;;13.07;8.60;;;;;;;7.12;100.00;100660.25;5022460;28;20040;-68
2023/11/10 08:36:43;;;;;;;13.03;9.10;;;;;;;7.36;100.00;100704.81;5002912;28;20413;-67
2023/11/10 08:39:09;;;;;;;15.07;9.83;;;;;;;7.37;100.00;100722.38;5025055;28;20521;-67
2023/11/10 08:41:35;;;;;;;14.53;9.20;;;;;;;7.35;100.00;100721.69;5019375;28;20148;-66
2023/11/10 08:44:03;;;;;;;15.10;9.77;;;;;;;7.27;100.00;100721.56;5017137;28;20042;-67
2023/11/10 08:46:30;;;;;;;;;;;;;;;7.28;100.00;100729.38;5022029;28;20069;-65
2023/11/10 08:48:55;;;;;;;15.37;9.73;;;;;;;7.14;100.00;100711.25;5020208;28;20324;-68
2023/11/10 08:51:21;;;;;;;13.83;9.07;;;;;;;7.03;100.00;100709.59;5022883;28;20037;-69
2023/11/10 08:53:46;;;;;;;13.00;9.00;;;;;;;7.11;100.00;100732.72;5021468;28;20046;-67
2023/11/10 08:56:13;;;;;;;11.70;7.97;;;;;;;6.97;100.00;100704.88;5025657;28;20480;-70
2023/11/10 08:58:39;;;;;;;11.90;9.23;;;;;;;6.95;100.00;100712.13;5021182;28;20033;-67
2023/11/10 09:01:06;;;;;;;12.67;11.20;;;;;;;7.02;100.00;100728.28;5017955;28;20033;-69
2023/11/10 09:03:31;;;;;;;12.67;9.37;;;;;;;7.03;100.00;100729.97;5027531;28;20037;-65
2023/11/10 09:05:58;;;;;;;13.77;9.50;;;;;;;6.95;100.00;100700.72;5020116;28;20126;-65
2023/11/10 09:08:23;;;;;;;11.57;9.10;;;;;;;6.95;100.00;100709.50;5019097;28;20034;-68
2023/11/10 09:10:50;;;;;;;12.73;10.20;;;;;;;6.86;100.00;100702.38;5018911;28;20070;-67
2023/11/10 09:13:15;;;;;;;13.83;10.30;;;;;;;7.00;100.00;100722.28;5024581;28;20049;-70
2023/11/10 09:15:41;;;;;;;15.67;9.70;;;;;;;6.62;100.00;100664.88;5028997;28;20116;-68
2023/11/10 09:18:07;;;;;;;14.70;9.30;;;;;;;6.76;100.00;100680.38;5035018;28;20181;-67
2023/11/10 09:20:33;;;;;;;12.87;9.53;;;;;;;6.87;100.00;100709.31;5034606;28;20026;-65
2023/11/10 09:23:00;;;;;;;14.40;9.63;;;;;;;6.66;100.00;100659.22;5034404;28;20034;-67
2023/11/10 09:25:28;;;;;;;19.70;9.27;;;;;;;6.84;100.00;100691.09;5029380;28;20057;-67
2023/11/10 09:27:57;;;;;;;13.33;10.50;;;;;;;7.04;100.00;100710.44;5008329;28;20080;-68
2023/11/10 09:30:29;;;;;;;12.37;8.43;;;;;;;6.95;100.00;100696.25;5019649;28;20029;-69
2023/11/10 09:32:56;;;;;;;13.50;9.73;;;;;;;7.13;100.00;100706.94;5027424;28;20044;-71
2023/11/10 09:35:22;;;;;;;15.90;10.17;;;;;;;7.00;100.00;100688.72;5002722;28;20034;-68
2023/11/10 09:37:48;;;;;;;14.27;9.60;;;;;;;7.09;100.00;100690.50;5003037;28;20038;-69
2023/11/10 09:40:16;;;;;;;11.73;10.13;;;;;;;7.07;100.00;100694.28;5022639;28;20040;-67
2023/11/10 09:42:42;;;;;;;19.48;10.25;;;;;;;7.16;100.00;100688.13;5022086;28;20080;-67
2023/11/10 09:45:12;;;;;;;10.80;9.00;;;;;;;7.21;100.00;100687.69;5024307;28;20038;-68
2023/11/10 09:47:40;;;;;;;16.63;9.97;;;;;;;7.26;100.00;100675.72;5034128;28;20033;-68
2023/11/10 09:50:08;;;;;;;13.70;10.77;;;;;;;7.33;100.00;100689.22;5033834;28;20037;-68
2023/11/10 09:52:36;;;;;;;11.75;9.77;;;;;;;7.30;100.00;100679.72;5034171;28;20085;-68
2023/11/10 09:55:02;;;;;;;12.57;8.98;;;;;;;7.20;100.00;100662.16;5033831;28;20048;-69
2023/11/10 09:57:30;;;;;;;14.10;10.57;;;;;;;6.56;100.00;100536.63;5034188;28;20141;-70
2023/11/10 09:59:56;;;;;;;13.67;10.83;;;;;;;7.22;100.00;100644.31;5032958;28;20484;-71
2023/11/10 10:02:22;;;;;;;14.10;9.73;;;;;;;7.29;100.00;100650.75;5033954;28;20041;-70
2023/11/10 10:04:48;;;;;;;16.50;10.77;;;;;;;7.30;100.00;100641.81;5033617;28;20030;-73
2023/11/10 10:07:16;;;;;;;20.83;10.60;;;;;;;7.32;100.00;100634.56;5031848;28;20501;-70
2023/11/10 10:09:43;;;;;;;14.73;10.87;;;;;;;7.38;100.00;100649.88;5033309;28;20041;-66
2023/11/10 10:12:10;;;;;;;17.90;14.17;;;;;;;7.25;100.00;100623.72;5033052;28;20087;-68
2023/11/10 10:14:37;;;;;;;17.33;10.83;;;;;;;7.23;100.00;100614.22;5033056;28;20040;-66
2023/11/10 10:17:03;;;;;;;15.50;10.43;;;;;;;7.44;100.00;100633.38;5031725;28;20064;-67
2023/11/10 10:19:32;;;;;;;12.13;9.83;;;;;;;7.36;100.00;100627.97;5032999;28;20492;-68
2023/11/10 10:22:02;;;;;;;10.87;9.70;;;;;;;7.31;100.00;100627.59;5031515;28;20033;-67
2023/11/10 10:24:29;;;;;;;13.70;10.20;;;;;;;7.17;100.00;100601.53;5032613;28;20061;-69
2023/11/10 10:27:02;;;;;;;18.93;9.50;;;;;;;7.27;100.00;100615.63;5031667;28;20091;-68
2023/11/10 10:29:29;;;;;;;12.27;9.60;;;;;;;7.28;100.00;100622.59;5032427;28;20048;-68
2023/11/10 10:31:58;;;;;;;14.93;9.23;;;;;;;7.35;100.00;100619.19;5031599;28;20037;-65
2023/11/10 10:34:25;;;;;;;14.50;10.50;;;;;;;7.37;100.00;100619.06;5032061;28;20061;-65
2023/11/10 10:36:51;;;;;;;12.63;10.30;;;;;;;7.38;100.00;100631.31;5032477;28;20044;-66
2023/11/10 10:39:18;;;;;;;11.67;9.30;;;;;;;7.28;100.00;100620.75;5032296;28;20063;-69
2023/11/10 10:41:44;;;;;;;16.63;9.30;;;;;;;7.26;100.00;100621.91;5032351;28;20435;-66
2023/11/10 10:44:10;;;;;;;13.07;10.30;;;;;;;7.32;100.00;100613.34;5032379;28;20438;-67
2023/11/10 10:46:37;;;;;;;12.80;9.57;;;;;;;7.07;100.00;100567.16;5031897;28;20076;-66
2023/11/10 10:49:06;;;;;;;13.68;9.50;;;;;;;7.25;100.00;100601.69;5030950;28;20025;-67
2023/11/10 10:51:36;;;;;;;;;;;;;;;7.33;100.00;100593.84;5032480;28;20037;-66
2023/11/10 10:54:06;;;;;;;15.03;11.13;;;;;;;7.30;100.00;100589.66;5032065;28;20011;-67
2023/11/10 10:56:39;;;;;;;14.53;11.37;;;;;;;7.25;100.00;100580.50;5032221;28;20120;-66
2023/11/10 10:59:06;;;;;;;20.23;11.80;;;;;;;7.25;100.00;100572.53;5031978;28;20065;-67
2023/11/10 11:01:33;;;;;;;16.73;12.23;;;;;;;7.33;100.00;100572.66;5030668;28;20033;-67
2023/11/10 11:04:28;;;;;;;22.00;11.77;;;;;;;7.53;100.00;100576.03;5032019;28;20037;-67
2023/11/10 11:07:19;;;;;;;17.77;13.10;;;;;;;7.53;100.00;100568.94;5032054;28;20413;-70
2023/11/10 11:10:16;;;;;;;24.43;11.93;;;;;;;7.52;100.00;100567.25;5031754;28;20030;-68
2023/11/10 11:13:04;;;;;;;19.03;13.07;;;;;;;7.49;100.00;100556.94;5031451;28;20072;-70
2023/11/10 11:16:05;;;;;;;14.60;10.70;;;;;;;7.49;100.00;100546.34;5032260;28;20463;-64
2023/11/10 11:19:12;;;;;;;14.00;10.23;;;;;;;7.46;100.00;100557.22;5031794;28;20400;-67